Observations for NANTES CHATEAU, France (LFRS)

LFRS 242030Z AUTO 27008KT 240V310 9999 OVC023 12/09 Q1018 BECMG BKN010  
LFRS 242000Z AUTO 27006KT 240V300 9999 OVC023 12/09 Q1017 BECMG BKN010  
LFRS 241930Z AUTO 27006KT 9999 FEW023 11/08 Q1017 BECMG BKN010  
LFRS 241900Z AUTO 26006KT 220V280 9999 FEW023 12/09 Q1017 NOSIG 
LFRS 241830Z AUTO 26009KT 230V290 CAVOK 13/08 Q1017 NOSIG   
LFRS 241800Z AUTO 26007KT 230V290 CAVOK 14/09 Q1017 NOSIG   
LFRS 241730Z AUTO 25008KT 220V280 CAVOK 15/10 Q1017 NOSIG   
LFRS 241700Z AUTO 25008KT 220V290 9999 FEW014 16/10 Q1017 NOSIG 
LFRS 241630Z AUTO 27008KT 230V310 CAVOK 16/10 Q1017 NOSIG   
LFRS 241600Z AUTO 27009KT CAVOK 16/10 Q1018 NOSIG   
LFRS 241530Z AUTO 25007KT 210V320 CAVOK 17/10 Q1018 NOSIG   
LFRS 241500Z AUTO 26009KT 210V290 9999 FEW028 17/10 Q1018 NOSIG 
LFRS 241430Z AUTO 25010KT 210V280 CAVOK 17/10 Q1018 NOSIG   
LFRS 241400Z AUTO 28009KT 200V300 CAVOK 17/11 Q1019 NOSIG   
LFRS 241330Z AUTO 25007KT 190V290 CAVOK 18/11 Q1019 NOSIG   
LFRS 241300Z AUTO VRB05KT CAVOK 18/10 Q1019 NOSIG   
LFRS 241230Z AUTO VRB03KT 9999 FEW031 17/10 Q1019 NOSIG 
LFRS 241200Z AUTO 27003KT 200V010 9999 FEW031 17/10 Q1020 NOSIG 
LFRS 241130Z AUTO 26006KT 230V320 9999 BKN029 16/09 Q1020 NOSIG 
LFRS 241100Z AUTO VRB05KT 9999 SCT028 17/11 Q1020 NOSIG 
LFRS 241030Z AUTO 23005KT 160V290 9999 BKN025 15/10 Q1021 NOSIG 
LFRS 241000Z AUTO 24006KT 200V270 9999 BKN021 BKN028 15/10 Q1021 NOSIG  
LFRS 240930Z AUTO 22006KT 180V280 9999 FEW019 15/10 Q1020 NOSIG 
LFRS 240900Z AUTO 26005KT 210V300 CAVOK 14/10 Q1020 NOSIG   
LFRS 240830Z AUTO 24004KT 200V300 CAVOK 13/11 Q1020 NOSIG   
LFRS 240800Z AUTO 25004KT 190V280 CAVOK 12/11 Q1020 NOSIG   
LFRS 240730Z AUTO VRB03KT CAVOK 10/10 Q1021 NOSIG   
LFRS 240700Z AUTO VRB01KT 9999 VV/// 09/09 Q1021 BECMG NSC  
LFRS 240630Z AUTO 00000KT 8000 VV/// 07/07 Q1020 BECMG NSC  
LFRS 240600Z AUTO 00000KT 7000 0350 R03/0450D R21/P2000 BCFG VV/// 06/06 Q1020 TEMPO 0500 FG BECMG NSC  
LFRS 240530Z AUTO 18001KT 0650 0300 R03/0650N R21/P2000 FG VV/// 05/05 Q1020 BECMG CAVOK
LFRS 240500Z AUTO 21001KT 2700 0600 R03/1500U R21/P2000 BCFG VV/// 05/05 Q1020 TEMPO 0500 FG
LFRS 240430Z AUTO 00000KT 6000 0900 R03/1900U R21/1900D BCFG FEW027 05/05 Q1020 TEMPO 0500 FG VV/// 
LFRS 240400Z AUTO 00000KT 7000 0900 R03/P2000 R21/P2000 BCFG NSC 05/05 Q1020 TEMPO 0500 FG VV///
LFRS 240330Z AUTO 27001KT CAVOK 05/05 Q1020 TEMPO 0500 FG VV/// 
LFRS 240300Z AUTO 27001KT 9999 3800 NSC 06/05 Q1020 TEMPO 0500 FG VV/// 
LFRS 240230Z AUTO 00000KT CAVOK 06/06 Q1020 TEMPO 0500 FG VV/// 
LFRS 240200Z AUTO 00000KT CAVOK 07/07 Q1020 NOSIG   
LFRS 240130Z AUTO 30001KT CAVOK 07/06 Q1021 NOSIG   
LFRS 240100Z AUTO 29002KT 9999 4900 NSC 07/06 Q1021 NOSIG   
LFRS 240030Z AUTO 26002KT CAVOK 07/07 Q1021 NOSIG   
LFRS 240000Z AUTO 24001KT CAVOK 07/06 Q1021 NOSIG   
LFRS 232330Z AUTO 26002KT CAVOK 08/07 Q1021 NOSIG   
LFRS 232300Z AUTO 26001KT CAVOK 09/08 Q1021 NOSIG   
LFRS 232230Z AUTO 27003KT CAVOK 09/08 Q1021 NOSIG   
LFRS 232200Z AUTO 25003KT CAVOK 09/08 Q1021 NOSIG   
LFRS 232130Z AUTO 26003KT CAVOK 10/08 Q1022 NOSIG   
LFRS 232100Z AUTO 26003KT CAVOK 10/08 Q1021 NOSIG   
LFRS 232030Z AUTO 26005KT CAVOK 11/08 Q1021 NOSIG   
LFRS 232000Z AUTO 26005KT CAVOK 12/09 Q1021 NOSIG